Tiempo atmosférico en la estación meteorológica de Herrera Del Duque, Badajoz (447 m.)



Fecha
DESCASC
Temp. máxima en grados centígrados (hora)
DESCASC
Temp. mínima en grados centígrados (hora)
DESCASC
Temp. media en grados centígrados
DESCASC
Racha de viento máxima en m/sg (hora)
DESCASC
Velocidad máxima media en intervalos de 10 minutos(hora)
DESCASC
Precipitaciones diarias en mm
DESCASC
Precipitaciones de 00:00 a 06:00 en mm
DESCASC
Precipitaciones de 06:00 a 12:00 en mm
DESCASC
Precipitaciones de 12:00 a 18:00 en mm
DESCASC
Precipitaciones de 18:00 a 24:00 en mm
DESCASC
26-11-2020 12.2 (03:40) 9.2 (23:30) 10.7 12.78 (06:30) 6.11 (05:50) 6.6 1.2 3 2.4 0
25-11-2020 14.2 (14:20) 9 (00:10) 11.6 13.06 (23:20) 5.83 (20:40) 5.8 0.2 0 4 1.6
24-11-2020 16.1 (14:40) 2.1 (07:00) 9.1 4.72 (15:40) 2.78 (15:40) 0 0 0 0 0
23-11-2020 18.2 (16:10) 3.2 (08:30) 10.7 3.06 (15:10) 1.94 (18:30) 0 0 0 0 0
22-11-2020 18.8 (16:40) 3.7 (00:00) 11.2 3.33 (13:30) 1.67 (00:30) 0 0 0 0 0
21-11-2020 19.6 (16:50) 5.7 (00:00) 12.7 6.39 (03:10) 3.33 (03:10) 0 0 0 0 0
20-11-2020 21.3 (16:30) 8.1 (00:00) 14.7 6.39 (12:50) 3.89 (15:20) 0 0 0 0 0
19-11-2020 24.4 (15:00) 8.5 (00:00) 16.4 4.72 (15:40) 2.78 (15:50) 0.2 0 0.2 0 0
18-11-2020 21.7 (17:00) 9.3 (00:00) 15.5 2.22 (13:40) 1.67 (22:20) 0.4 0.2 0 0.2 0
17-11-2020 18.8 (16:50) 10.8 (00:00) 14.8 2.22 (19:50) 1.39 (00:10) 0.2 0 0.2 0 0
16-11-2020 20.6 (16:30) 11.3 (00:00) 16 4.44 (13:00) 2.78 (14:40) 0 0 0 0 0
15-11-2020 21.3 (15:20) 12.7 (00:00) 17 6.11 (21:00) 3.33 (21:00) 0.2 0 0.2 0 0
14-11-2020 15.7 (15:20) 12.4 (00:00) 14 5 (17:20) 3.06 (17:20) 7.4 1.2 2.2 4 0
13-11-2020 18.3 (16:30) 6.6 (00:00) 12.4 2.22 (12:40) 1.67 (00:10) 0 0 0 0 0
12-11-2020 20.4 (15:00) 9.1 (00:00) 14.8 6.94 (15:20) 4.17 (15:30) 0 0 0 0 0
11-11-2020 19.7 (14:30) 6.9 (00:00) 13.3 3.33 (15:00) 2.5 (15:00) 0.2 0.2 0 0 0
10-11-2020 19.2 (15:40) 7.7 (00:00) 13.5 4.17 (15:40) 2.5 (16:50) 0.2 0.2 0 0 0
09-11-2020 18.7 (15:00) 9.9 (00:00) 14.3 7.78 (01:40) 4.17 (01:30) 10 8.8 1.2 0 0
08-11-2020 19.4 (15:50) 8.4 (00:00) 13.9 7.22 (20:00) 3.61 (19:40) 1 0 0.2 0 0.8
07-11-2020 18.6 (15:20) 10.7 (00:00) 14.7 15.28 (01:50) 6.94 (00:30) 1.6 1.2 0.4 0 0
06-11-2020 20.7 (19:20) 10.7 (00:00) 15.7 14.17 (23:20) 7.5 (23:40) 0.6 0 0 0.6 0
05-11-2020 17.5 (14:30) 10.1 (00:00) 13.8 15.28 (06:00) 8.33 (15:00) 12.4 5 1 6.2 0.2
04-11-2020 16.4 (15:50) 10.6 (00:00) 13.5 8.61 (12:40) 5 (18:50) 11.8 0 0 11.4 0.4
03-11-2020 18.1 (11:40) 13.3 (00:00) 15.7 5 (11:50) 2.78 (11:50) 1.2 0.4 0 0.8 0
02-11-2020 23.3 (14:30) 9 (00:00) 16.1 3.61 (14:50) 2.5 (16:20) 0.2 0.2 0 0 0
01-11-2020 23.2 (15:40) 8.7 (00:00) 16 3.89 (16:30) 2.5 (16:30) 0 0 0 0 0
31-10-2020 26 (16:30) 9.4 (00:00) 17.7 4.17 (14:20) 2.78 (14:20) 0 0 0 0 0
30-10-2020 25.5 (15:40) 9.7 (00:00) 17.6 4.17 (15:10) 2.22 (15:10) 0.2 0 0.2 0 0
29-10-2020 22.6 (16:20) 9.4 (00:00) 16 5.56 (10:30) 3.33 (12:50) 0.2 0 0.2 0 0
28-10-2020 20.1 (16:30) 10.3 (00:00) 15.2 4.17 (13:40) 2.5 (13:40) 0 0 0 0 0

Gráficas

Temp. máximas Temp. mínimas Temp. medias Precipitaciones Rachas de viento máximas Velocidades máximas media en intervalos de 10 minutos

Datos horarios

Fecha y hora oficial Temperatura (ºC) Velocidad del viento (km/h) Dirección del viento Racha (km/h) Dirección de racha Precipitación (mm) Presión (hPa) Tendencia (hPa) Humedad (%)
2020-11-26 23:00:00 9.3 2 Noroeste 4 Sur 0 957.9 0.2 86
2020-11-26 22:00:00 9.5 2 Norte 5 Nordeste 0 957.8 -- 82
2020-11-26 21:00:00 9.7 4 Norte 18 Sudeste 0 957.9 -- 80
2020-11-26 20:00:00 10.5 14 Sudeste 22 Sudeste 0 957.7 -- 71
2020-11-26 19:00:00 10.3 7 Sudeste 22 Sudeste 0 957 -- 75
2020-11-26 18:00:00 10.9 11 Sur 26 Sudeste 0 956.6 -- 72
2020-11-26 17:00:00 11.5 12 Sudeste 23 Sudeste 0 956.2 -- 69
2020-11-26 16:00:00 11.7 7 Sur 18 Sur 0.2 955.8 -- 75
2020-11-26 15:00:00 12.1 7 Sur 18 Este 0 955.4 -- 71
2020-11-26 14:00:00 11.2 10 Sudeste 26 Sudeste 0.6 955.7 -- 74
2020-11-26 13:00:00 10.5 17 Sudeste 33 Sudeste 1.6 956.6 -- 79
2020-11-26 12:00:00 10.7 18 Sudeste 32 Sudeste 1.8 957.3 -- 79
2020-11-26 11:00:00 10.8 14 Sudeste 30 Sudeste 0.8 957.3 -- 81
2020-11-26 10:00:00 10.8 13 Este 24 Este 0.2 956.9 -- 81
2020-11-26 09:00:00 10.8 14 Este 30 Sudeste 0 956.8 -- 78
2020-11-26 08:00:00 10.8 15 Sudeste 34 Este 0 956.6 -- 74
2020-11-26 07:00:00 10.5 19 Sudeste 46 Sudeste 0.2 956.6 -- 74
2020-11-26 06:00:00 10.6 19 Sudeste 38 Sudeste 0.2 956.3 -- 76
2020-11-26 05:00:00 11.3 15 Sudeste 36 Sudeste 0.4 956.4 -- 79
2020-11-26 04:00:00 12.1 17 Sudeste 34 Sudeste 0 956.4 -- 71
2020-11-26 03:00:00 12 15 Sudeste 32 Sudeste 0 956.4 -- 72
2020-11-26 02:00:00 11.4 14 Sudeste 31 Sudeste 0.2 957 -- 77
2020-11-26 01:00:00 11.1 17 Sudeste 29 Sudeste 0.4 957.9 -- 79
2020-11-26 00:00:00 11.3 17 Sudeste 47 Sudeste 1 957.9 -- 78
2020-11-25 23:00:00 12 14 Sudeste 37 Sudeste 0 958.5 -- 70
2020-11-25 22:00:00 12 14 Sur 38 Sudeste 0 958.3 -- 69
2020-11-25 21:00:00 12.2 18 Sudeste 39 Sudeste 0 958.2 -- 71
2020-11-25 20:00:00 12.3 12 Sur 31 Sudeste 0 958.4 -- 74
2020-11-25 19:00:00 12.3 10 Sudeste 32 Sudeste 0.6 958.2 -- 73
2020-11-25 18:00:00 12.4 17 Sur 36 Sudeste 0.2 958.1 -- 75
2020-11-25 17:00:00 12.8 17 Sudeste 33 Sudeste 0 958.2 -- 78
2020-11-25 16:00:00 12.6 15 Sudeste 29 Sudeste 3.2 958.2 -- 78
2020-11-25 15:00:00 13.2 12 Sudeste 26 Sudeste 0.6 958.9 -- 73
2020-11-25 14:00:00 13.9 13 Sudeste 24 Sudeste 0 959.9 -- 63
2020-11-25 13:00:00 13.7 14 Sudeste 28 Sudeste 0 961.3 -- 65
2020-11-25 12:00:00 13.6 14 Sudeste 28 Sudeste 0 962.4 -- 65
2020-11-25 11:00:00 12.7 14 Sudeste 29 Sudeste 0 962.7 -- 68
2020-11-25 10:00:00 12 10 Sudeste 24 Sudeste 0 963.1 -- 71
2020-11-25 09:00:00 10.7 8 Este 21 Sur 0 963.1 -- 74
2020-11-25 08:00:00 10.4 11 Sudeste 19 Sudeste 0 963.4 -- 73
2020-11-25 07:00:00 9.5 5 Sur 12 Sudeste 0 963.5 -- 79
2020-11-25 06:00:00 9.4 0 Calma 13 Sudoeste 0 963.9 -- 85
2020-11-25 05:00:00 10.1 5 Sur 14 Sudoeste 0 964.3 -- 83
2020-11-25 04:00:00 9.9 3 Sur 8 Sudeste 0.2 964.7 -- 85
2020-11-25 03:00:00 9.6 0 Calma 5 Sudoeste 0 965.2 -- 86
2020-11-25 02:00:00 9.6 4 Sudoeste 6 Sudoeste 0 965.6 -- 87
2020-11-25 01:00:00 9.2 4 Norte 6 Norte 0 966.2 -- 85
2020-11-25 00:00:00 9.1 4 Este 6 Sur 0 966.4 -- 80
2020-11-24 23:00:00 10.1 3 Sudoeste 7 Noroeste 0 967 -- 79
2020-11-24 22:00:00 11.3 2 Este 8 Sudeste 0 967.5 -- 74
2020-11-24 21:00:00 11.1 5 Sudeste 7 Sudeste 0 967.6 -- 74
2020-11-24 20:00:00 11.4 0 Calma 6 Sudeste 0 968 -- 74
2020-11-24 19:00:00 10.9 0 Calma 6 Sur 0 968.2 -- 73
2020-11-24 18:00:00 12.6 3 Sudoeste 12 Oeste 0 968 -- 64
2020-11-24 17:00:00 15 9 Oeste 17 Oeste 0 968.3 -- 55
2020-11-24 16:00:00 16 8 Oeste 17 Oeste 0 968.3 -- 51
2020-11-24 15:00:00 15 9 Oeste 15 Sudoeste 0 968.6 -- 50
2020-11-24 14:00:00 14.5 5 Noroeste 9 Noroeste 0 969.6 -- 59
2020-11-24 13:00:00 13.7 4 Noroeste 9 Nordeste 0 970.4 -- 59
2020-11-24 12:00:00 11.3 2 Noroeste 8 Norte 0 971.5 -- 66
2020-11-24 11:00:00 8.9 2 Oeste 5 Oeste 0 972.1 -- 73
2020-11-24 10:00:00 6 3 Oeste 6 Oeste 0 972.2 -- 87
2020-11-24 09:00:00 3.2 0 Calma 2 Norte 0 971.9 -- 90
2020-11-24 08:00:00 3.5 0 Calma 2 Oeste 0 971.5 -- 90
2020-11-24 07:00:00 2.1 0 Calma 3 Sudoeste 0 971.4 -- 88
2020-11-24 06:00:00 3.6 3 Sur 4 Sudeste 0 971.2 -- 89
2020-11-24 05:00:00 3.8 0 Calma 5 Sur 0 971.4 -- 89
2020-11-24 04:00:00 3.3 3 Sur 5 Sur 0 971.7 -- 88
2020-11-24 03:00:00 4.8 3 Sudoeste 6 Sur 0 971.9 -- 88
2020-11-24 02:00:00 4.6 4 Sur 6 Sur 0 972.3 -- 87
2020-11-24 01:00:00 4.9 2 Sudoeste 4 Sudeste 0 972.7 -- 84
2020-11-24 00:00:00 5.6 2 Sudeste 4 Sudoeste 0 973 -- 82
2020-11-23 23:00:00 6.8 3 Sur 5 Sudoeste 0 973.4 -- 79
2020-11-23 22:00:00 7.9 3 Sur 7 Sur 0 973.2 -- 77
2020-11-23 21:00:00 8.7 3 Sudoeste 5 Sur 0 973 -- 75
2020-11-23 20:00:00 9.1 2 Sur 7 Sudeste 0 972.8 -- 76
2020-11-23 19:00:00 11 7 Sudeste 9 Sur 0 972.6 -- 68
2020-11-23 18:00:00 13.8 5 Sur 7 Sur 0 972.5 -- 64
2020-11-23 17:00:00 17.9 2 Sudoeste 7 Noroeste 0 972.4 -- 45
2020-11-23 16:00:00 17.9 4 Oeste 11 Oeste 0 972.6 -- 48
2020-11-23 15:00:00 17 3 Noroeste 7 Oeste 0 973 -- 51
2020-11-23 14:00:00 15.5 4 Sudoeste 7 Oeste 0 973.5 -- 57
2020-11-23 13:00:00 13.6 3 Sudoeste 7 Sudoeste 0 974.4 -- 64
2020-11-23 12:00:00 10.7 4 Sudoeste 8 Sudoeste 0 975.1 -- 76
2020-11-23 11:00:00 8.2 4 Sudoeste 9 Sudoeste 0 975.5 -- 85
2020-11-23 10:00:00 6.9 4 Oeste 8 Sudoeste 0 975.1 -- 92
2020-11-23 09:00:00 4.2 0 Calma 3 Oeste 0 974.8 -- 92
2020-11-23 08:00:00 3.8 2 Sudeste 4 Oeste 0 974.3 -- 90
2020-11-23 07:00:00 4 3 Oeste 4 Oeste 0 974.1 -- 90
2020-11-23 06:00:00 4.8 2 Sur 5 Oeste 0 974 -- 90
2020-11-23 05:00:00 6 5 Sudoeste 6 Sudoeste 0 973.9 -- 91
2020-11-23 04:00:00 5.6 2 Sur 4 Sudoeste 0 974 -- 89
2020-11-23 03:00:00 5.8 0 Calma 5 Oeste 0 974.1 -- 87
2020-11-23 02:00:00 6.4 2 Sudoeste 5 Sudoeste 0 974.3 -- 87
2020-11-23 01:00:00 6.4 2 Sur 3 Sur 0 974.5 -- 86
2020-11-23 00:00:00 7.2 2 Norte 6 Sudoeste 0 974.5 -- 84
2020-11-22 23:00:00 7.3 2 Sudeste 5 Sudeste 0 974.5 -- 84
2020-11-22 22:00:00 8.2 0 Calma 5 Sudoeste 0 974.5 -- 80
2020-11-22 21:00:00 9.3 5 Sudoeste 6 Sudeste 0 974.2 -- 77
2020-11-22 20:00:00 10.2 5 Sur 7 Sudeste 0 973.8 -- 74
2020-11-22 19:00:00 11.6 3 Sur 6 Sur 0 973.5 -- 71
2020-11-22 18:00:00 13.9 4 Sur 7 Sudoeste 0 973.3 -- 64
2020-11-22 17:00:00 18.3 2 Noroeste 8 Oeste 0 973.2 -- 44
2020-11-22 16:00:00 18.5 3 Oeste 9 Oeste 0 973.2 -- 44
2020-11-22 15:00:00 17.4 4 Noroeste 12 Norte 0 973.5 -- 50
2020-11-22 14:00:00 16.7 3 Oeste 12 Norte 0 974.3 -- 52
2020-11-22 13:00:00 15.1 3 Sudoeste 8 Norte 0 975 -- 56
2020-11-22 12:00:00 13.5 2 Sur 7 Noroeste 0 975.8 -- 61
2020-11-22 11:00:00 11.1 2 Sudoeste 6 Noroeste 0 976.1 -- 69
2020-11-22 10:00:00 8.7 2 Norte 5 Norte 0 976 -- 76
2020-11-22 09:00:00 5.8 0 Calma 4 Sudoeste 0 975.6 -- 88
2020-11-22 08:00:00 4.3 2 Sur 5 Sudoeste 0 975.2 -- 88
2020-11-22 07:00:00 3.9 0 Calma 4 Sur 0 974.9 -- 86
2020-11-22 06:00:00 4.3 0 Calma 5 Sudeste 0 974.7 -- 85
2020-11-22 05:00:00 5.7 2 Sur 5 Sudeste 0 974.6 -- 79
2020-11-22 04:00:00 6.8 3 Sudoeste 6 Sudoeste 0 974.4 -- 79
2020-11-22 03:00:00 7.3 5 Sudoeste 7 Sudoeste 0 974.3 -- 77
2020-11-22 02:00:00 7.6 4 Sudoeste 7 Sudoeste 0 974.4 -- 74
2020-11-22 01:00:00 8.1 5 Sudoeste 8 Oeste 0 974.5 -- 72
2020-11-22 00:00:00 7.9 3 Sudoeste 8 Oeste 0 974.3 -- 74
2020-11-21 23:00:00 7.5 0 Calma 6 Sudeste 0 974.3 -- 75
2020-11-21 22:00:00 8.3 2 Sur 8 Sudeste 0 974 -- 72
2020-11-21 21:00:00 9.5 5 Sur 10 Sudoeste 0 973.8 -- 64
2020-11-21 20:00:00 9.8 2 Sur 9 Sudeste 0 973.7 -- 67
2020-11-21 19:00:00 11.8 4 Sur 9 Sudeste 0 973.3 -- 58
2020-11-21 18:00:00 14.6 3 Sur 9 Oeste 0 972.9 -- 50
2020-11-21 17:00:00 19 7 Oeste 9 Oeste 0 972.5 -- 34
2020-11-21 16:00:00 19.2 5 Nordeste 12 Nordeste 0 972.3 -- 30
2020-11-21 15:00:00 19.1 5 Norte 13 Norte 0 972.4 -- 30
2020-11-21 14:00:00 18.1 5 Nordeste 10 Norte 0 973 -- 32
2020-11-21 13:00:00 16.8 4 Oeste 8 Oeste 0 973.8 -- 37
2020-11-21 12:00:00 14.9 4 Oeste 8 Norte 0 974.4 -- 41
2020-11-21 11:00:00 12.8 4 Sudoeste 6 Sudoeste 0 974.6 -- 47
2020-11-21 10:00:00 11.2 3 Sudoeste 5 Sudoeste 0 974.4 -- 47
2020-11-21 09:00:00 7.3 2 Sur 7 Sudoeste 0 973.8 -- 64
2020-11-21 08:00:00 6 3 Sudoeste 11 Oeste 0 973.3 -- 66
2020-11-21 07:00:00 6.8 3 Oeste 9 Sudeste 0 972.6 -- 61
2020-11-21 06:00:00 7.5 5 Oeste 12 Oeste 0 972.3 -- 60
2020-11-21 05:00:00 8.6 6 Sudoeste 13 Oeste 0 972.7 -- 54
2020-11-21 04:00:00 9.7 3 Sur 23 Este 0 972.6 -- 49
2020-11-21 03:00:00 11.8 10 Este 20 Este 0 972.7 -- 37
2020-11-21 02:00:00 9.9 5 Oeste 16 Norte 0 973 -- 49
2020-11-21 01:00:00 10.8 8 Nordeste 16 Nordeste 0 973.3 -- 46
2020-11-21 00:00:00 8.7 4 Noroeste 6 Noroeste 0 973.6 -- 58
2020-11-20 23:00:00 9.1 3 Sur 7 Sudeste 0 974 -- 56
2020-11-20 22:00:00 10.3 4 Oeste 11 Sur 0 973.7 -- 52
2020-11-20 21:00:00 10.9 5 Sur 10 Sudeste 0 973.7 -- 50
2020-11-20 20:00:00 12.6 3 Norte 8 Este 0 973.7 -- 48
2020-11-20 19:00:00 14.7 3 Sur 9 Sudeste 0 973.8 -- 42
2020-11-20 18:00:00 17.4 5 Sudeste 12 Este 0 973.8 -- 32
2020-11-20 17:00:00 20.9 7 Este 13 Este 0 973.5 -- 22
2020-11-20 16:00:00 21.1 8 Este 20 Nordeste 0 973.6 -- 21
2020-11-20 15:00:00 21 13 Nordeste 21 Nordeste 0 973.7 -- 25
2020-11-20 14:00:00 20.5 8 Este 16 Nordeste 0 974.5 -- 34
2020-11-20 13:00:00 19.7 9 Este 23 Nordeste 0 975.3 -- 34
2020-11-20 12:00:00 18.4 4 Este 10 Nordeste 0 976.3 -- 50
2020-11-20 11:00:00 16.6 0 Calma 8 Nordeste 0 976.5 -- 60
2020-11-20 10:00:00 14.2 0 Calma 6 Sudoeste 0 976.3 -- 67
2020-11-20 09:00:00 9.4 2 Sur 5 Noroeste 0 976.2 -- 86
2020-11-20 08:00:00 8.7 4 Noroeste 10 Sudeste 0 976 -- 86
2020-11-20 07:00:00 9.6 5 Sudeste 8 Sudoeste 0 976 -- 84
2020-11-20 06:00:00 10.3 3 Sudoeste 10 Sudoeste 0 976.1 -- 83
2020-11-20 05:00:00 10.3 4 Sur 12 Oeste 0 976.5 -- 82
2020-11-20 04:00:00 10.3 4 Sudoeste 8 Oeste 0 976.7 -- 81
2020-11-20 03:00:00 11.2 3 Sudeste 9 Sur 0 977 -- 79
2020-11-20 02:00:00 11.6 4 Sudoeste 6 Sudoeste 0 977 -- 78
2020-11-20 01:00:00 12.1 2 Sur 8 Oeste 0 977.7 -- 76
2020-11-20 00:00:00 13.4 6 Sudoeste 12 Oeste 0 977.9 -- 70
2020-11-19 23:00:00 13.1 5 Sudoeste 8 Sur 0 978 -- 72
2020-11-19 22:00:00 13.1 3 Sudoeste 6 Sudoeste 0 977.7 -- 73
2020-11-19 21:00:00 14.9 4 Oeste 6 Oeste 0 977.7 -- 65
2020-11-19 20:00:00 15.6 0 Calma 8 Oeste 0 977.4 -- 62
2020-11-19 19:00:00 16.9 4 Sudoeste 6 Sudeste 0 977.3 -- 59
2020-11-19 18:00:00 19.8 3 Sur 8 Este 0 976.8 -- 53
2020-11-19 17:00:00 23.5 5 Este 11 Este 0 976.4 -- 38
2020-11-19 16:00:00 23.9 10 Nordeste 17 Este 0 976.5 -- 36
2020-11-19 15:00:00 24.4 3 Este 11 Norte 0 976.4 -- 33
2020-11-19 14:00:00 22.8 8 Noroeste 12 Noroeste 0 977.2 -- 44
2020-11-19 13:00:00 21.5 4 Sudeste 7 Este 0 977.7 -- 43
2020-11-19 12:00:00 18.7 4 Sudoeste 8 Noroeste 0 978.1 -- 61
2020-11-19 11:00:00 16.6 0 Calma 8 Norte 0 977.8 -- 75
2020-11-19 10:00:00 13.6 3 Nordeste 6 Sur 0 977.6 -- 86
2020-11-19 09:00:00 10.3 3 Sur 5 Sudeste 0 977.3 -- 94
2020-11-19 08:00:00 9.2 3 Sur 8 Sudeste 0.2 976.4 -- 92
2020-11-19 07:00:00 9.8 0 Calma 4 Sur 0 975.9 -- 91
2020-11-19 06:00:00 11 3 Sudoeste 6 Sudoeste 0 975.3 -- 93
2020-11-19 05:00:00 11 5 Sudoeste 6 Sudoeste 0 975.1 -- 93
2020-11-19 04:00:00 11.1 3 Sur 7 Sudoeste 0 975.3 -- 92
2020-11-19 03:00:00 11.7 5 Sudoeste 6 Sudoeste 0 975 -- 93
2020-11-19 02:00:00 11.4 4 Sudoeste 5 Sudoeste 0 975 -- 91
2020-11-19 01:00:00 11.7 2 Nordeste 6 Sur 0 975.3 -- 89
2020-11-19 00:00:00 12.8 4 Sudoeste 6 Sudoeste 0 975.4 -- 90
2020-11-18 23:00:00 13.4 3 Noroeste 8 Sudoeste 0 975.4 -- 90
2020-11-18 22:00:00 13.6 2 Sudoeste 6 Sudoeste 0 975.2 -- 89
2020-11-18 21:00:00 14.6 0 Calma 6 Sur 0 974.6 -- 86
2020-11-18 20:00:00 15.6 4 Sur 7 Sur 0 974.3 -- 84
2020-11-18 19:00:00 16.2 0 Calma 8 Sudeste 0 973.9 -- 80
2020-11-18 18:00:00 18.2 4 Sur 7 Sudoeste 0 973.5 -- 74
2020-11-18 17:00:00 21.6 2 Sudoeste 6 Sudoeste 0 973.3 -- 61
2020-11-18 16:00:00 21.1 3 Oeste 6 Norte 0 973.5 -- 62
2020-11-18 15:00:00 19.7 3 Noroeste 7 Oeste 0 973.6 -- 67
2020-11-18 14:00:00 16.8 2 Noroeste 8 Noroeste 0.2 974.2 -- 89
2020-11-18 13:00:00 14.1 3 Norte 8 Nordeste 0 975 -- --
2020-11-18 12:00:00 12.4 3 Noroeste 5 Noroeste 0 975.7 -- --
2020-11-18 11:00:00 10.7 2 Sudeste 5 Sudeste 0 975.8 -- --
2020-11-18 10:00:00 9.7 2 Sudeste 5 Oeste 0 975.7 -- --
2020-11-18 09:00:00 9.3 3 Oeste 6 Noroeste 0 975.3 -- 98
2020-11-18 08:00:00 9.5 0 Calma 3 Norte 0 974.7 -- 95
2020-11-18 07:00:00 9.7 2 Norte 5 Norte 0 974.5 -- 94
2020-11-18 06:00:00 9.9 3 Norte 5 Nordeste 0 974.5 -- 94
2020-11-18 05:00:00 10.6 0 Calma 4 Norte 0 974.4 -- 94
2020-11-18 04:00:00 10.9 0 Calma 3 Norte 0 974.5 -- 94
2020-11-18 03:00:00 11 0 Calma 3 Nordeste 0.2 974.5 -- 94
2020-11-18 02:00:00 10.9 0 Calma 3 Norte 0 974.5 -- 94
2020-11-18 01:00:00 11.2 0 Calma 3 Sudoeste 0 974.9 -- 93
2020-11-18 00:00:00 10.8 0 Calma 5 Oeste 0 974.8 -- 91
2020-11-17 23:00:00 11.3 0 Calma 6 Sudoeste 0 974.9 -- 91
2020-11-17 22:00:00 11.7 0 Calma 4 Sudoeste 0 974.8 -- 89
2020-11-17 21:00:00 12.2 0 Calma 4 Sudeste 0 974.5 -- 88
2020-11-17 20:00:00 13.1 4 Sudeste 8 Sudeste 0 974.3 -- 86
2020-11-17 19:00:00 14.1 3 Sur 5 Sudeste 0 974 -- 84
2020-11-17 18:00:00 16.6 3 Sudeste 5 Sudeste 0 973.8 -- 78
2020-11-17 17:00:00 18.8 2 Sudoeste 5 Oeste 0 973.7 -- 70
2020-11-17 16:00:00 17.5 2 Sudeste 6 Sudoeste 0 973.7 -- 77
2020-11-17 15:00:00 15.7 3 Sudoeste 6 Sudeste 0 973.9 -- 86
2020-11-17 14:00:00 14.2 3 Sudoeste 8 Noroeste 0 974.2 -- 91
2020-11-17 13:00:00 13.6 4 Nordeste 7 Norte 0 974.8 -- 94
2020-11-17 12:00:00 13.2 3 Norte 7 Norte 0 975.4 -- 94
2020-11-17 11:00:00 12.6 0 Calma 6 Este 0 975.4 -- 94
2020-11-17 10:00:00 12 2 Sudoeste 6 Oeste 0 975.2 -- 94
2020-11-17 09:00:00 11.8 4 Este 8 Este 0.2 974.7 -- 94
2020-11-17 08:00:00 12 2 Oeste 7 Nordeste 0 974 -- 94
2020-11-17 07:00:00 12.3 3 Norte 6 Norte 0 973.8 -- 94
2020-11-17 06:00:00 12.7 4 Nordeste 7 Nordeste 0 973.6 -- 94
2020-11-17 05:00:00 12.9 0 Calma 5 Nordeste 0 973.5 -- 93
2020-11-17 04:00:00 13 0 Calma 4 Norte 0 973.4 -- 93
2020-11-17 03:00:00 12.5 2 Norte 4 Norte 0 973.6 -- 92
2020-11-17 02:00:00 12.3 0 Calma 4 Norte 0 973.5 -- 92
2020-11-17 01:00:00 12.1 2 Sur 6 Sudoeste 0 973.7 -- 92
2020-11-17 00:00:00 11.4 3 Sur 5 Sudeste 0 973.8 -- 91
2020-11-16 23:00:00 11.5 0 Calma 5 Sudeste 0 973.7 -- 89
2020-11-16 22:00:00 11.9 0 Calma 7 Sur 0 973.4 -- 87
2020-11-16 21:00:00 13.3 4 Sur 5 Sur 0 973.1 -- 85
2020-11-16 20:00:00 14.3 2 Sudeste 8 Sudeste 0 972.7 -- 83
2020-11-16 19:00:00 15.8 3 Sudoeste 8 Sudoeste 0 972.1 -- 78
2020-11-16 18:00:00 17.3 5 Sudoeste 10 Oeste 0 971.7 -- 71
2020-11-16 17:00:00 19 8 Oeste 15 Oeste 0 971.5 -- 64
2020-11-16 16:00:00 19.8 2 Sur 10 Noroeste 0 971.4 -- 62
2020-11-16 15:00:00 18.8 9 Noroeste 15 Noroeste 0 971.8 -- 66
2020-11-16 14:00:00 19 9 Noroeste 14 Oeste 0 971.9 -- 63
2020-11-16 13:00:00 18.9 9 Oeste 16 Oeste 0 972.3 -- 66
2020-11-16 12:00:00 18.2 6 Oeste 12 Oeste 0 972.3 -- 76
2020-11-16 11:00:00 17.5 8 Oeste 14 Oeste 0 972.4 -- 75
2020-11-16 10:00:00 16.7 3 Oeste 9 Oeste 0 972 -- 85
2020-11-16 09:00:00 16.4 6 Sudoeste 13 Sur 0 971.1 -- 85
2020-11-16 08:00:00 15.9 5 Oeste 10 Oeste 0 970.7 -- 87
2020-11-16 07:00:00 15.9 4 Sudoeste 8 Noroeste 0 970.4 -- 84
2020-11-16 06:00:00 16 2 Sur 11 Sudoeste 0 970.1 -- 83
2020-11-16 05:00:00 15.4 3 Sudeste 6 Nordeste 0 969.7 -- 83
2020-11-16 04:00:00 16.3 2 Sudeste 9 Sudoeste 0 970.1 -- 80
2020-11-16 03:00:00 16.2 2 Sur 12 Sudoeste 0 970.1 -- 79
2020-11-16 02:00:00 16.8 4 Sur 11 Sudoeste 0 970.2 -- 76
2020-11-16 01:00:00 16.3 5 Noroeste 10 Noroeste 0 970.8 -- 77
2020-11-16 00:00:00 17.8 6 Sudoeste 19 Sudoeste 0 970.3 -- 71
2020-11-15 23:00:00 18.4 8 Sudoeste 19 Sudoeste 0 969.6 -- 69
2020-11-15 22:00:00 18.5 8 Sudoeste 21 Sudoeste 0 969.5 -- 69
2020-11-15 21:00:00 19.1 12 Sudoeste 22 Sudoeste 0 969.8 -- 67
2020-11-15 20:00:00 16.7 0 Calma 7 Sur 0 969.4 -- 83
2020-11-15 19:00:00 17.7 3 Sudoeste 6 Sur 0 969.3 -- 80
2020-11-15 18:00:00 19.2 3 Sur 9 Sudoeste 0 969.3 -- 73
2020-11-15 17:00:00 20.9 5 Sudoeste 12 Sudoeste 0 968.9 -- 64
2020-11-15 16:00:00 20.6 8 Sudoeste 18 Sur 0 968.9 -- 64
2020-11-15 15:00:00 21.2 10 Sudoeste 21 Sudoeste 0 968.8 -- 61
2020-11-15 14:00:00 20.4 8 Sudoeste 19 Sudoeste 0 969.5 -- 63
2020-11-15 13:00:00 20.6 9 Sudoeste 22 Sur 0 969.9 -- 64
2020-11-15 12:00:00 19.7 7 Sur 17 Sudoeste 0.2 970.3 -- 67
2020-11-15 11:00:00 18.3 6 Sudeste 11 Sudeste 0 970.4 -- 76
2020-11-15 10:00:00 16.2 3 Este 12 Sudeste 0 970.4 -- 84
2020-11-15 09:00:00 15 4 Este 9 Sudeste 0 970.1 -- 87
2020-11-15 08:00:00 14.7 6 Sudeste 10 Sudeste 0 969.8 -- 90
2020-11-15 07:00:00 14.5 3 Sudeste 8 Sudeste 0 969.3 -- 93
2020-11-15 06:00:00 13.9 5 Sudeste 9 Sudeste 0 969.1 -- 94
2020-11-15 05:00:00 13.1 3 Norte 6 Norte 0 969.1 -- 94
2020-11-15 04:00:00 13.3 3 Sudoeste 10 Sudeste 0 969.3 -- 94
2020-11-15 03:00:00 12.9 4 Sudoeste 5 Sudoeste 0 969.6 -- 94
2020-11-15 02:00:00 12.8 4 Noroeste 12 Oeste 0 969.8 -- 93
2020-11-15 01:00:00 13.1 2 Oeste 6 Nordeste 0 969.8 -- 93
2020-11-15 00:00:00 13.2 3 Noroeste 6 Noroeste 0 970.1 -- 93
2020-11-14 23:00:00 12.8 0 Calma 7 Sudeste 0 970.2 -- 92
2020-11-14 22:00:00 12.4 0 Calma 4 Sur 0 970 -- 91
2020-11-14 21:00:00 12.9 3 Nordeste 9 Sudoeste 0 969.5 -- 89
2020-11-14 20:00:00 13 3 Sur 11 Sudoeste 0 969.3 -- 90
2020-11-14 19:00:00 14.1 6 Sudoeste 9 Sudoeste 0 968.7 -- 90
2020-11-14 18:00:00 14.9 5 Oeste 18 Noroeste 0.2 968.2 -- 91
2020-11-14 17:00:00 15.4 4 Sur 15 Sudoeste 1.2 967.6 -- 90
2020-11-14 16:00:00 15.6 2 Sur 10 Sudeste 1.8 967.4 -- 87
2020-11-14 15:00:00 15.5 4 Sur 11 Sur 0.2 967.5 -- 87
2020-11-14 14:00:00 15.2 4 Sudoeste 10 Sudoeste 0.4 967.9 -- 88
2020-11-14 13:00:00 14.8 4 Norte 6 Norte 0.2 968.4 -- 90
2020-11-14 12:00:00 13.8 3 Nordeste 5 Nordeste 1.4 968.9 -- 90
2020-11-14 11:00:00 13.3 2 Sur 5 Noroeste 0.4 968.9 -- 90
2020-11-14 10:00:00 13 3 Oeste 6 Noroeste 0 968.8 -- 91
2020-11-14 09:00:00 12.8 3 Noroeste 7 Norte 0 968.5 -- 92
2020-11-14 08:00:00 12.5 0 Calma 4 Sudeste 0 967.8 -- 91
2020-11-14 07:00:00 12.5 0 Calma 4 Oeste 0.4 967.5 -- 90
2020-11-14 06:00:00 12.5 0 Calma 5 Sur 0.6 967.5 -- 89
2020-11-14 05:00:00 12.6 3 Sudoeste 13 Oeste 0.4 967.5 -- 89
2020-11-14 04:00:00 13.2 0 Calma 10 Este 0 967.5 -- 84
2020-11-14 03:00:00 12.8 3 Este 5 Este 0.2 967.9 -- 86
2020-11-14 02:00:00 13 3 Oeste 5 Sudoeste 0 968.3 -- 85
2020-11-14 01:00:00 12.9 3 Sudoeste 8 Oeste 0 968.6 -- 85
2020-11-14 00:00:00 12.9 2 Oeste 4 Sudoeste 0 968.9 -- 84
2020-11-13 23:00:00 12.5 2 Sur 4 Sur 0 968.8 -- 84
2020-11-13 22:00:00 12.3 2 Sudoeste 5 Sudoeste 0 968.7 -- 83
2020-11-13 21:00:00 12.4 0 Calma 5 Sur 0 968.2 -- 83
2020-11-13 20:00:00 13.2 4 Sur 6 Sur 0 968 -- 79
2020-11-13 19:00:00 14.1 4 Sur 5 Sur 0 967.7 -- 77
2020-11-13 18:00:00 15.9 3 Sur 6 Sudoeste 0 967.5 -- 71
2020-11-13 17:00:00 17.8 4 Noroeste 8 Nordeste 0 967.3 -- 59
2020-11-13 16:00:00 17.8 2 Norte 7 Oeste 0 967.1 -- 58
2020-11-13 15:00:00 17.8 2 Oeste 7 Oeste 0 967.4 -- 60
2020-11-13 14:00:00 16.9 3 Oeste 7 Oeste 0 968 -- 62
2020-11-13 13:00:00 15.3 3 Nordeste 8 Nordeste 0 968.6 -- 66
2020-11-13 12:00:00 13.5 3 Noroeste 6 Norte 0 969.4 -- 70
2020-11-13 11:00:00 11.2 3 Noroeste 6 Oeste 0 969.4 -- 78
2020-11-13 10:00:00 9.8 3 Oeste 5 Sudoeste 0 969 -- 84
2020-11-13 09:00:00 8.5 2 Noroeste 5 Sudoeste 0 968.5 -- 89
2020-11-13 08:00:00 7.5 4 Sudoeste 5 Oeste 0 968.1 -- 90
2020-11-13 07:00:00 7.2 2 Noroeste 6 Sudoeste 0 967.9 -- 89
2020-11-13 06:00:00 6.7 0 Calma 5 Sur 0 967.6 -- 87
2020-11-13 05:00:00 7.1 2 Oeste 5 Sudoeste 0 967.5 -- 87
2020-11-13 04:00:00 7.3 2 Nordeste 4 Sudoeste 0 967.5 -- 86
2020-11-13 03:00:00 8.1 0 Calma 6 Sudoeste 0 967.7 -- 85
2020-11-13 02:00:00 8.3 0 Calma 4 Sudoeste 0 967.9 -- 83
2020-11-13 01:00:00 9.4 3 Sur 7 Sudoeste 0 968.2 -- 81
2020-11-13 00:00:00 9.9 5 Sudoeste 8 Sudoeste 0 968.1 -- 76
2020-11-12 23:00:00 10.5 6 Sudoeste 7 Sudoeste 0 968 -- 71
2020-11-12 22:00:00 10.3 4 Sudoeste 9 Oeste 0 967.5 -- 70
2020-11-12 21:00:00 11.4 6 Norte 10 Noroeste 0 967.5 -- 65
2020-11-12 20:00:00 12.3 4 Nordeste 14 Sudeste 0 967.7 -- 57
2020-11-12 19:00:00 15.5 10 Sudeste 16 Sudeste 0 967.3 -- 39
2020-11-12 18:00:00 16.9 7 Sudeste 17 Este 0 967 -- 36
2020-11-12 17:00:00 18.8 11 Este 18 Sudeste 0 966.7 -- 36
2020-11-12 16:00:00 19.5 14 Sudeste 25 Sudeste 0 966.8 -- 38
2020-11-12 15:00:00 20.2 7 Nordeste 16 Este 0 967.1 -- 41
2020-11-12 14:00:00 19.2 5 Noroeste 12 Noroeste 0 968 -- 51
2020-11-12 13:00:00 18 6 Norte 13 Norte 0 968.9 -- 57
2020-11-12 12:00:00 16.5 5 Noroeste 9 Noroeste 0 969.8 -- 60
2020-11-12 11:00:00 14.9 4 Nordeste 8 Nordeste 0 970.3 -- 68
2020-11-12 10:00:00 11.1 2 Nordeste 4 Sudeste 0 970.4 -- 86
2020-11-12 09:00:00 9.8 4 Sudeste 5 Sudeste 0 970.3 -- 88
2020-11-12 08:00:00 9.3 3 Sur 5 Sudeste 0 970 -- 89
2020-11-12 07:00:00 9.4 2 Sudeste 4 Sur 0 969.8 -- 88
2020-11-12 06:00:00 9.1 2 Sudoeste 6 Sudoeste 0 969.9 -- 88
2020-11-12 05:00:00 9.5 3 Sur 5 Sur 0 969.7 -- 87
2020-11-12 04:00:00 9.8 4 Sudoeste 6 Sudoeste 0 970 -- 87
2020-11-12 03:00:00 9.8 2 Sudoeste 5 Sur 0 970.7 -- 86
2020-11-12 02:00:00 10 4 Sudoeste 5 Sudoeste 0 971 -- 86
2020-11-12 01:00:00 10.8 3 Sudoeste 6 Oeste 0 971.4 -- 84
2020-11-12 00:00:00 11.2 4 Sur 8 Sudoeste 0 971.3 -- 82
2020-11-11 23:00:00 11.4 4 Sudoeste 5 Sudoeste 0 971.1 -- 82
2020-11-11 22:00:00 11.7 3 Sur 6 Sur 0 970.9 -- 78
2020-11-11 21:00:00 12.1 0 Calma 8 Norte 0 970.6 -- 79
2020-11-11 20:00:00 13.1 3 Sur 8 Sudeste 0 970.6 -- 73
2020-11-11 19:00:00 14.4 4 Sur 8 Sudeste 0 970.4 -- 69
2020-11-11 18:00:00 17.4 2 Sur 4 Oeste 0 970.2 -- 64
2020-11-11 17:00:00 18.5 2 Oeste 6 Noroeste 0 970 -- 54
2020-11-11 16:00:00 18.8 4 Noroeste 12 Oeste 0 970.1 -- 54
2020-11-11 15:00:00 19.4 9 Oeste 12 Noroeste 0 970.2 -- 54
2020-11-11 14:00:00 18.8 4 Este 8 Nordeste 0 970.5 -- 54
2020-11-11 13:00:00 16.8 4 Noroeste 10 Nordeste 0 971.5 -- 60
2020-11-11 12:00:00 15 3 Norte 6 Oeste 0 972.2 -- 64
2020-11-11 11:00:00 12.9 2 Sudoeste 6 Sudoeste 0 972.7 -- 72
2020-11-11 10:00:00 10.6 2 Oeste 5 Oeste 0 973 -- 82
2020-11-11 09:00:00 9.1 0 Calma 5 Este 0 972.6 -- 91
2020-11-11 08:00:00 7 3 Sudeste 5 Sudeste 0 972.5 -- 90
2020-11-11 07:00:00 7.3 0 Calma 3 Sudoeste 0 972.3 -- 90
2020-11-11 06:00:00 7.9 2 Oeste 6 Sudoeste 0 972.5 -- 90
2020-11-11 05:00:00 7.7 2 Oeste 5 Sudoeste 0 972.5 -- 89
2020-11-11 04:00:00 8.5 4 Sudoeste 6 Sudoeste 0.2 972.9 -- 89
2020-11-11 03:00:00 8.6 3 Sudoeste 6 Sudoeste 0 973.2 -- 89
2020-11-11 02:00:00 9.2 5 Sudoeste 6 Oeste 0 973.6 -- 88
2020-11-11 01:00:00 9.5 3 Sudoeste 7 Sur 0 973.8 -- 86
2020-11-11 00:00:00 9.3 3 Norte 5 Noroeste 0 973.8 -- 85
2020-11-10 23:00:00 10.1 2 Sudeste 5 Norte 0 973.7 -- 83
2020-11-10 22:00:00 10.7 4 Noroeste 5 Noroeste 0 973.7 -- 83
2020-11-10 21:00:00 11.5 0 Calma 8 Sudeste 0 973.3 -- 78
2020-11-10 20:00:00 12.9 5 Sur 9 Norte 0 973.3 -- 72
2020-11-10 19:00:00 14.2 4 Sudeste 7 Sudeste 0 972.9 -- 65
2020-11-10 18:00:00 16.4 5 Sur 11 Este 0 972.9 -- 58
2020-11-10 17:00:00 18.9 8 Este 14 Este 0 972.7 -- 45
2020-11-10 16:00:00 19.1 7 Este 15 Sudeste 0 972.4 -- 49
2020-11-10 15:00:00 18.7 5 Este 12 Este 0 972.9 -- 52
2020-11-10 14:00:00 17 3 Norte 7 Norte 0 973.5 -- 63
2020-11-10 13:00:00 14.2 3 Sudoeste 10 Oeste 0 974.3 -- 80
2020-11-10 12:00:00 11.8 2 Sudoeste 5 Noroeste 0 974.8 -- 95
2020-11-10 11:00:00 9.7 3 Sudeste 6 Sudeste 0 974.7 -- 95
2020-11-10 10:00:00 8.4 3 Noroeste 6 Sur 0 975.1 -- 94
2020-11-10 09:00:00 7.9 3 Oeste 7 Oeste 0 974.7 -- 94
2020-11-10 08:00:00 7.8 2 Norte 6 Norte 0 973.3 -- 94
2020-11-10 07:00:00 8.1 3 Norte 5 Norte 0 973.3 -- 93
2020-11-10 06:00:00 8.2 3 Sudoeste 4 Sudoeste 0 973.1 -- 93
2020-11-10 05:00:00 8.1 0 Calma 5 Norte 0.2 972.8 -- 92
2020-11-10 04:00:00 8.1 2 Nordeste 4 Sur 0 972.6 -- 91
2020-11-10 03:00:00 8.9 4 Sudoeste 9 Oeste 0 972.8 -- 91
2020-11-10 02:00:00 8.6 2 Sur 4 Sudeste 0 972.5 -- 89
2020-11-10 01:00:00 9.6 3 Sudoeste 4 Sur 0 972.8 -- 88
2020-11-10 00:00:00 9.9 0 Calma 6 Sudeste 0 972.7 -- 86
2020-11-09 23:00:00 10.6 2 Sur 6 Sudoeste 0 972.8 -- 85
2020-11-09 22:00:00 11.1 0 Calma 4 Sudoeste 0 972.5 -- 84
2020-11-09 21:00:00 12 4 Sudeste 8 Sur 0 972 -- 81
2020-11-09 20:00:00 12.7 5 Sur 7 Sur 0 971.9 -- 78
2020-11-09 19:00:00 14.4 4 Oeste 8 Oeste 0 971.5 -- 69
2020-11-09 18:00:00 15.9 4 Oeste 12 Sudoeste 0 971 -- 63
2020-11-09 17:00:00 18 8 Sudoeste 19 Sudoeste 0 970.8 -- 52
2020-11-09 16:00:00 18.4 10 Sudoeste 19 Sudoeste 0 970.4 -- 52
2020-11-09 15:00:00 18.3 12 Sudoeste 19 Sudoeste 0 970.3 -- 55
2020-11-09 14:00:00 17.4 9 Oeste 21 Oeste 0 970.4 -- 65
2020-11-09 13:00:00 17.6 10 Oeste 18 Sudoeste 0 970.8 -- 63
2020-11-09 12:00:00 16.5 11 Sudoeste 18 Oeste 0 971.3 -- 68
2020-11-09 11:00:00 16.3 5 Sudoeste 10 Sudoeste 0 971.2 -- 74
2020-11-09 10:00:00 14.9 6 Oeste 13 Sudoeste 0 971 -- 85
2020-11-09 09:00:00 13.6 6 Sudoeste 11 Sur 0.2 970.5 -- 88
2020-11-09 08:00:00 13.2 2 Sudeste 9 Sudeste 0 969.4 -- 89
2020-11-09 07:00:00 12.9 3 Nordeste 6 Este 1 968.9 -- 91
2020-11-09 06:00:00 12.9 2 Nordeste 7 Este 3.4 968.8 -- 90
2020-11-09 05:00:00 13.1 4 Noroeste 13 Sudeste 1.8 968.5 -- 89
2020-11-09 04:00:00 13.3 5 Sudeste 9 Noroeste 3 968.6 -- 89
2020-11-09 03:00:00 13.9 6 Sur 25 Sudoeste 0.2 968.9 -- 82
2020-11-09 02:00:00 13.9 9 Sudoeste 28 Sudoeste 0.2 968.5 -- 80
2020-11-09 01:00:00 14.2 9 Sur 19 Sudeste 0.2 968.7 -- 77
2020-11-09 00:00:00 13.7 2 Norte 22 Sudoeste 0.8 969.2 -- 83
2020-11-08 23:00:00 15.3 10 Sudoeste 17 Sur 0 969.2 -- 68
2020-11-08 22:00:00 15.6 7 Sudoeste 21 Sudoeste 0 969 -- 66
2020-11-08 21:00:00 15.9 11 Sudeste 23 Sur 0 968.7 -- 60
2020-11-08 20:00:00 16.3 10 Sudeste 26 Sudeste 0 968.7 -- 57
2020-11-08 19:00:00 16.3 10 Sudeste 17 Sur 0 968.5 -- 58
2020-11-08 18:00:00 17.1 7 Sur 19 Sudeste 0 968.4 -- 55
2020-11-08 17:00:00 18.3 5 Sur 13 Sur 0 968.2 -- 52
2020-11-08 16:00:00 18.4 4 Oeste 8 Oeste 0 968.5 -- 51
2020-11-08 15:00:00 18.1 5 Sudoeste 16 Sudoeste 0 968.7 -- 51
2020-11-08 14:00:00 18.4 9 Sudoeste 15 Oeste 0 969.3 -- 51
2020-11-08 13:00:00 17.4 6 Sur 18 Sudoeste 0 969.8 -- 56
2020-11-08 12:00:00 17.5 9 Sur 22 Sur 0 970.5 -- 56
2020-11-08 11:00:00 15.3 4 Norte 7 Nordeste 0 970.7 -- 74
2020-11-08 10:00:00 11.8 4 Oeste 9 Noroeste 0 971.2 -- 87
2020-11-08 09:00:00 9.9 3 Oeste 6 Noroeste 0 970.8 -- 91
2020-11-08 08:00:00 9.3 3 Oeste 6 Noroeste 0 970.5 -- 91
2020-11-08 07:00:00 9.3 2 Norte 4 Oeste 0.2 970.3 -- 92
2020-11-08 06:00:00 9.3 3 Oeste 8 Oeste 0 970.5 -- 92
2020-11-08 05:00:00 8.4 5 Sudoeste 8 Oeste 0 970.4 -- 91
2020-11-08 04:00:00 9.1 3 Noroeste 10 Oeste 0 970.5 -- 89
2020-11-08 03:00:00 9.9 3 Nordeste 6 Nordeste 0 970.5 -- 87
2020-11-08 02:00:00 10.4 2 Oeste 5 Oeste 0 970.9 -- 84
2020-11-08 01:00:00 10.8 2 Norte 9 Sur 0 971.2 -- 83
2020-11-08 00:00:00 13.1 5 Sur 15 Sur 0 971 -- 71
2020-11-07 23:00:00 13.8 6 Sur 20 Sur 0 970.8 -- 69
2020-11-07 22:00:00 13.8 9 Sur 22 Sur 0 970.8 -- 67
2020-11-07 21:00:00 11.3 5 Sudeste 8 Sudeste 0 970.4 -- 80
2020-11-07 20:00:00 12.3 2 Sudeste 8 Sudeste 0 970.2 -- 74
2020-11-07 19:00:00 13.2 4 Sur 9 Sudeste 0 970 -- 71
2020-11-07 18:00:00 15.3 3 Sur 11 Sudoeste 0 969.3 -- 63
2020-11-07 17:00:00 17.1 4 Sudoeste 28 Oeste 0 968.9 -- 53
2020-11-07 16:00:00 18.2 9 Oeste 26 Sudoeste 0 968.8 -- 51
2020-11-07 15:00:00 18 13 Sudoeste 22 Oeste 0 968.4 -- 54
2020-11-07 14:00:00 16.1 9 Oeste 22 Oeste 0 968 -- 65
2020-11-07 13:00:00 14.9 10 Oeste 21 Oeste 0 968.1 -- 73
2020-11-07 12:00:00 14.4 10 Oeste 27 Oeste 0.2 967.6 -- 76
2020-11-07 11:00:00 14.3 17 Sudoeste 32 Sudoeste 0 966.9 -- 71
2020-11-07 10:00:00 13.2 12 Sudoeste 30 Sudoeste 0.2 966.1 -- 80
2020-11-07 09:00:00 13.1 15 Sudoeste 31 Sur 0 964.7 -- 75
2020-11-07 08:00:00 13.2 12 Sur 31 Sudoeste 0 963.3 -- 73
2020-11-07 07:00:00 13.1 12 Sur 33 Sudeste 0 962.1 -- 72
2020-11-07 06:00:00 13 13 Sur 30 Sudeste 0 961.9 -- 74
2020-11-07 05:00:00 13.1 12 Sur 35 Sudeste 1 961.8 -- 74
2020-11-07 04:00:00 14.4 15 Sur 37 Sur 0.2 961.9 -- 73
2020-11-07 03:00:00 15.4 15 Sur 45 Sudeste 0 960.9 -- 66
2020-11-07 02:00:00 16.9 23 Sur 55 Sudeste 0 960.9 -- 56
2020-11-07 01:00:00 16.9 19 Sudeste 48 Sudeste 0 960.7 -- 55
2020-11-07 00:00:00 16.9 18 Sur 51 Sudeste 0 961.5 -- 55
2020-11-06 23:00:00 18.7 21 Sudeste 46 Sudeste 0 961.9 -- 44
2020-11-06 22:00:00 20.3 19 Sur 36 Sur 0 961.2 -- 36
2020-11-06 21:00:00 20 11 Sur 41 Sur 0 960.9 -- 45
2020-11-06 20:00:00 20.4 12 Sur 35 Sudeste 0 961 -- 43
2020-11-06 19:00:00 20.4 12 Sudeste 34 Sudeste 0 960 -- 42
2020-11-06 18:00:00 20 16 Sudeste 49 Sudoeste 0.6 960 -- 44
2020-11-06 17:00:00 18.2 6 Sudoeste 10 Sudoeste 0 959.7 -- 67
2020-11-06 16:00:00 19.1 6 Sudoeste 14 Oeste 0 958.9 -- 60
2020-11-06 15:00:00 19.3 8 Oeste 14 Oeste 0 959.2 -- 60
2020-11-06 14:00:00 20.4 11 Sudeste 45 Sudeste 0 959.6 -- 46
2020-11-06 13:00:00 20.6 14 Sudeste 45 Sudeste 0 959.9 -- 43
2020-11-06 12:00:00 19.8 14 Sudeste 41 Este 0 960.3 -- 44
2020-11-06 11:00:00 18.7 21 Sudeste 50 Este 0 959.8 -1.8 48
2020-11-06 10:00:00 16.5 14 Este 36 Este 0 961 -- 60
2020-11-06 09:00:00 15.2 10 Este 25 Este 0 961.5 -- 63
2020-11-06 08:00:00 12.2 5 Oeste 9 Este 0 961.6 -- 85
2020-11-06 07:00:00 12.5 4 Sur 7 Sudeste 0 962.1 -- 85
2020-11-06 06:00:00 12.5 5 Sudoeste 13 Oeste 0 963 -- 86
2020-11-06 05:00:00 13 5 Sudoeste 12 Oeste 0 963.1 -- 82
2020-11-06 04:00:00 13.8 5 Oeste 32 Sudeste 0 963.3 -- 78
2020-11-06 03:00:00 16.7 18 Sudeste 44 Sudeste 0 963.4 -- 54
2020-11-06 02:00:00 16.6 17 Sudeste 36 Sudeste 0 963 -- 56
2020-11-06 01:00:00 14.4 12 Sudeste 21 Sudeste 0 963.2 -- 72
2020-11-06 00:00:00 10.7 5 Sudoeste 12 Oeste 0 963.1 -- 92
2020-11-05 23:00:00 10.4 3 Sudoeste 7 Sudoeste 0.2 963.4 -- 91
2020-11-05 22:00:00 10.3 4 Oeste 8 Oeste 0 963.9 -- 91
2020-11-05 21:00:00 10.4 6 Sudoeste 8 Oeste 0 963.9 -- 91
2020-11-05 20:00:00 10.3 5 Oeste 9 Oeste 0 963.6 -- 90
2020-11-05 19:00:00 10.9 4 Noroeste 9 Este 0 963.2 -- 89
2020-11-05 18:00:00 11.5 6 Este 17 Nordeste 1.8 962.8 -- 89
2020-11-05 17:00:00 11.4 4 Norte 24 Este 0.6 964 -- 87
2020-11-05 16:00:00 11.7 7 Sudeste 33 Sudoeste 1.8 963.7 -- 82
2020-11-05 15:00:00 12.2 30 Sudoeste 55 Sudoeste 2 963.2 -- 71
2020-11-05 14:00:00 17.1 16 Este 29 Sudeste 0 962.3 -- 66
2020-11-05 13:00:00 16.6 12 Este 23 Este 0 963 -- 67
2020-11-05 12:00:00 16.1 8 Este 24 Sudeste 0 963.6 -- 70
2020-11-05 11:00:00 15.2 16 Sudeste 32 Sudeste 0.6 963.8 -- 73
2020-11-05 10:00:00 14.6 12 Sudeste 41 Sudeste 0.2 963.8 -- 74
2020-11-05 09:00:00 14.8 24 Este 44 Sudeste 0 962.7 -- 70
2020-11-05 08:00:00 14.5 17 Este 44 Sudeste 0.2 962.1 -- 70
2020-11-05 07:00:00 14.9 21 Sudeste 53 Este 0 961.6 -- 65
2020-11-05 06:00:00 14.4 29 Este 55 Este 0 961.3 -- 71
2020-11-05 05:00:00 13.8 24 Este 40 Este 0 961.2 -- 74
2020-11-05 04:00:00 13.1 19 Este 32 Este 1 961.7 -- 79
2020-11-05 03:00:00 13.2 6 Este 22 Este 0 962.3 -- 77
2020-11-05 02:00:00 12.7 12 Este 29 Este 1.6 961.7 -- 80
2020-11-05 01:00:00 12.3 21 Este 36 Este 2.4 962.7 -- 85
2020-11-05 00:00:00 13.2 14 Este 29 Este 0 962.6 -- 77
2020-11-04 23:00:00 13.6 14 Este 28 Este 0 962.9 -- 77
2020-11-04 22:00:00 13.4 8 Este 18 Este 0 962.7 -- 80
2020-11-04 21:00:00 13.7 9 Este 19 Este 0 962.4 -- 79
2020-11-04 20:00:00 13.5 13 Este 30 Este 0 962.2 -- 79
2020-11-04 19:00:00 13.9 17 Este 27 Este 0.4 961.5 -- 75
2020-11-04 18:00:00 14.1 4 Este 16 Sudeste 1.2 961.6 -- 81
2020-11-04 17:00:00 15.5 10 Sudeste 26 Este 0 961.5 -- 72
2020-11-04 16:00:00 15.5 17 Este 25 Este 0 961.2 -- 73
2020-11-04 15:00:00 14.1 12 Este 25 Este 0 961.8 -- 78
2020-11-04 14:00:00 13.1 13 Sudeste 24 Este 9.8 963 -- 79
2020-11-04 13:00:00 14 15 Sudeste 31 Sudeste 0.4 963.6 -- 80
2020-11-04 12:00:00 14.2 12 Sudeste 24 Sudeste 0 964.5 -- 79
2020-11-04 11:00:00 12.9 6 Sudeste 17 Sudeste 0 965.2 -0.8 85
2020-11-04 10:00:00 12.7 2 Norte 5 Oeste 0 965.8 -- 84
2020-11-04 09:00:00 11.5 0 Calma 6 Sudeste 0 965.8 -- 90
2020-11-04 08:00:00 10.8 3 Oeste 6 Sur 0 966 -- 90
2020-11-04 07:00:00 11 3 Sur 6 Sudoeste 0 966.3 -- 89
2020-11-04 06:00:00 11 2 Sur 7 Sudoeste 0 967 -- 90
2020-11-04 05:00:00 10.9 7 Oeste 9 Oeste 0 967.5 -- 89
2020-11-04 04:00:00 11.3 3 Oeste 7 Sudoeste 0 968 -- 88
2020-11-04 03:00:00 11.9 3 Sudoeste 8 Este 0 968.6 -- 87
2020-11-04 02:00:00 12.6 3 Este 6 Nordeste 0 969.3 -- 86
2020-11-04 01:00:00 12.9 2 Sudeste 6 Norte 0 970.4 -- 87
2020-11-04 00:00:00 13.3 2 Oeste 6 Noroeste 0 970.6 -- 86
2020-11-03 23:00:00 13.9 4 Sur 6 Sur 0 970.8 -- 86
2020-11-03 22:00:00 14.6 2 Nordeste 8 Oeste 0 971.2 -- 85
2020-11-03 21:00:00 14.7 3 Sudoeste 5 Norte 0 971.3 -- 89
2020-11-03 20:00:00 15.6 3 Norte 6 Sudeste 0 971.3 -- 88
2020-11-03 19:00:00 16.6 4 Sur 6 Sur 0 971.3 -- 85
2020-11-03 18:00:00 17.6 3 Sur 6 Sudoeste 0 970.9 -- 81
2020-11-03 17:00:00 17.7 2 Sudeste 6 Sudeste 0.2 970.8 -- 80
2020-11-03 16:00:00 17.4 4 Sur 8 Sudoeste 0 971 -- 83
2020-11-03 15:00:00 16.9 4 Sudoeste 11 Oeste 0.2 971.1 -- 87
2020-11-03 14:00:00 16.9 6 Noroeste 9 Noroeste 0.4 971.3 -- 87
2020-11-03 13:00:00 16.9 8 Noroeste 12 Noroeste 0 971.7 -- 84
2020-11-03 12:00:00 17.4 10 Noroeste 18 Noroeste 0 971.9 -- 83
2020-11-03 11:00:00 17 3 Nordeste 7 Norte 0 971.9 -- 85
2020-11-03 10:00:00 16.5 3 Oeste 7 Oeste 0 971.7 -- 87
2020-11-03 09:00:00 15.6 3 Norte 7 Noroeste 0 971.4 -- 91
2020-11-03 08:00:00 15.1 3 Sur 10 Oeste 0 970.7 -- 90
2020-11-03 07:00:00 15.3 2 Noroeste 13 Sudeste 0 970.6 -- 89
2020-11-03 06:00:00 15.3 6 Oeste 11 Oeste 0 970.6 -- 89
2020-11-03 05:00:00 15.4 3 Este 7 Nordeste 0.2 970.6 -- 87
2020-11-03 04:00:00 15.9 2 Sur 8 Sudoeste 0.2 970.7 -- 86
2020-11-03 03:00:00 16 5 Sudeste 7 Sudeste 0 970.7 -- 84
2020-11-03 02:00:00 15.7 4 Noroeste 8 Noroeste 0 970.6 -- 85
2020-11-03 01:00:00 16.3 4 Noroeste 7 Sudoeste 0 970.4 -- 82
2020-11-03 00:00:00 17.3 6 Sur 8 Sur 0 970.8 -- 79
2020-11-02 23:00:00 17.2 0 Calma 7 Sudeste 0 970.9 -- 78
2020-11-02 22:00:00 17.9 4 Sur 8 Sur 0 971 -- 73
2020-11-02 21:00:00 18.2 3 Sur 6 Sudoeste 0 971 -- 70
2020-11-02 20:00:00 18 4 Sur 7 Sur 0 970.8 -- 66
2020-11-02 19:00:00 18.6 3 Sudeste 9 Noroeste 0 970.3 -- 67
2020-11-02 18:00:00 19.5 6 Noroeste 11 Oeste 0 970 -- 64
2020-11-02 17:00:00 20.8 7 Oeste 13 Oeste 0 969.8 -- 59
2020-11-02 16:00:00 21.7 8 Oeste 11 Noroeste 0 969.9 -- 54
2020-11-02 15:00:00 22.5 7 Noroeste 13 Noroeste 0 969.9 -- 52
2020-11-02 14:00:00 21.9 5 Noroeste 10 Noroeste 0 970.6 -- 54
2020-11-02 13:00:00 19.8 3 Oeste 9 Oeste 0 971.4 -- 63
2020-11-02 12:00:00 18.5 5 Norte 9 Norte 0 972.2 -- 66
2020-11-02 11:00:00 15.8 5 Oeste 7 Oeste 0 972.2 -- 75
2020-11-02 10:00:00 13.4 2 Sudoeste 5 Noroeste 0 972.2 -- 86
2020-11-02 09:00:00 11.7 3 Oeste 5 Sudoeste 0 971.8 -- 93
2020-11-02 08:00:00 9.7 3 Sudoeste 5 Sudoeste 0 971.2 -- 93
2020-11-02 07:00:00 9.4 0 Calma 6 Sudeste 0 971.1 -- 92
2020-11-02 06:00:00 9.1 0 Calma 6 Sur 0 971.2 -- 91
2020-11-02 05:00:00 9.4 3 Norte 5 Sur 0 971.1 -- 90
2020-11-02 04:00:00 10.5 2 Sur 8 Sudoeste 0.2 971 -- 91
2020-11-02 03:00:00 10.7 3 Sudoeste 4 Oeste 0 971.4 -- 89
2020-11-02 02:00:00 11.5 4 Sur 7 Sur 0 971.2 -- 89
2020-11-02 01:00:00 11.1 3 Sudeste 6 Sudeste 0 971.8 -- 88
2020-11-02 00:00:00 11.7 2 Sur 3 Sudeste 0 971.9 -- 87
2020-11-01 23:00:00 12.4 3 Sudoeste 5 Sudoeste 0 972.1 -- 83
2020-11-01 22:00:00 12.9 3 Sur 6 Sudeste 0 971.9 -- 83
2020-11-01 21:00:00 13.5 0 Calma 7 Sudeste 0 971.7 -- 80
2020-11-01 20:00:00 14.7 8 Sudeste 10 Sudeste 0 971.7 -- 73
2020-11-01 19:00:00 16 6 Sur 9 Sur 0 971.6 -- 75
2020-11-01 18:00:00 19.5 3 Sudoeste 6 Oeste 0 971.5 -- 64
2020-11-01 17:00:00 21.5 4 Noroeste 14 Noroeste 0 971.5 -- 55
2020-11-01 16:00:00 21.4 9 Noroeste 12 Noroeste 0 971.8 -- 50
2020-11-01 15:00:00 21.9 4 Noroeste 11 Oeste 0 972 -- 50
2020-11-01 14:00:00 21.3 7 Noroeste 11 Noroeste 0 972.8 -- 53
2020-11-01 13:00:00 19.6 3 Oeste 8 Oeste 0 973.3 -- 60
2020-11-01 12:00:00 18.6 3 Sur 12 Noroeste 0 973.9 -- 63
2020-11-01 11:00:00 16.1 5 Oeste 10 Oeste 0 974.5 -- 72
2020-11-01 10:00:00 13.9 3 Nordeste 5 Este 0 973.9 -- 80
2020-11-01 09:00:00 11.9 0 Calma 5 Sur 0 974 -- 90
2020-11-01 08:00:00 9.1 3 Oeste 7 Oeste 0 973.4 -- 91
2020-11-01 07:00:00 8.9 2 Norte 6 Nordeste 0 972.8 -- 89
2020-11-01 06:00:00 10.2 3 Sudeste 6 Sur 0 973 -- 90
2020-11-01 05:00:00 10 4 Norte 8 Oeste 0 973 -- 88
2020-11-01 04:00:00 10.9 5 Sur 7 Sur 0 972.9 -- 89
2020-11-01 03:00:00 10.9 2 Noroeste 4 Oeste 0 973.1 -- 86
2020-11-01 02:00:00 11.9 0 Calma 7 Sur 0 973.4 -- 83
2020-11-01 01:00:00 12.8 6 Sur 9 Oeste 0 973.7 -- 83
2020-11-01 00:00:00 12.6 2 Noroeste 7 Sudeste 0 973.5 -- 82
2020-10-31 23:00:00 14 6 Sur 8 Sur 0 973.3 -- 77
2020-10-31 22:00:00 15 3 Sudeste 8 Sudeste 0 973 -- 73
2020-10-31 21:00:00 16.2 5 Sur 8 Sur 0 973.1 -- 65
2020-10-31 20:00:00 16.9 5 Sudeste 7 Sudeste 0 973 -- 61
2020-10-31 19:00:00 19.6 5 Sudoeste 8 Oeste 0 972.7 -- 53
2020-10-31 18:00:00 22 6 Oeste 14 Oeste 0 972 -- 44
2020-10-31 17:00:00 24.7 8 Oeste 13 Oeste 0 971.9 -- 36
2020-10-31 16:00:00 25.7 6 Noroeste 12 Noroeste 0 972 -- 31
2020-10-31 15:00:00 25.2 5 Noroeste 15 Noroeste 0 972 -- 32
2020-10-31 14:00:00 24.1 9 Noroeste 14 Oeste 0 972.6 -- 38
2020-10-31 13:00:00 22.5 3 Sudeste 8 Sudeste 0 973.1 -- 41
2020-10-31 12:00:00 19.5 3 Nordeste 7 Este 0 974.1 -- 55
2020-10-31 11:00:00 17.3 3 Nordeste 8 Oeste 0 974.3 -- 67
2020-10-31 10:00:00 14.2 5 Oeste 9 Oeste 0 974.4 -- 78
2020-10-31 09:00:00 11.6 3 Oeste 6 Sudeste 0 973.7 -- 86
2020-10-31 08:00:00 9.6 4 Nordeste 9 Sudeste 0 973.3 -- 88
2020-10-31 07:00:00 10.1 4 Sur 9 Oeste 0 973.1 -- 89
2020-10-31 06:00:00 10.3 4 Oeste 7 Oeste 0 973 -- 88
2020-10-31 05:00:00 10.7 5 Sur 8 Sudeste 0 972.3 -- 88
2020-10-31 04:00:00 11.4 3 Sudoeste 4 Sur 0 972.4 -- 86
2020-10-31 03:00:00 12 0 Calma 5 Sur 0 972.6 -- 84
2020-10-31 02:00:00 12.6 0 Calma 6 Oeste 0 972.9 -- 82
2020-10-31 01:00:00 13.2 3 Sudoeste 5 Sudoeste 0 972.7 -- 79
2020-10-31 00:00:00 13.7 4 Sudoeste 7 Sudoeste 0 972.9 -- 78
2020-10-30 23:00:00 14.4 4 Sudoeste 7 Sudoeste 0 972.7 -- 74
2020-10-30 22:00:00 15 3 Sur 6 Sur 0 972.5 -- 71
2020-10-30 21:00:00 16.2 4 Sudoeste 5 Sur 0 972.4 -- 65
2020-10-30 20:00:00 16.6 3 Sudoeste 6 Sur 0 972 -- 65
2020-10-30 19:00:00 18.4 4 Sur 8 Sur 0 971.7 -- 58
2020-10-30 18:00:00 22.3 5 Sudoeste 10 Norte 0 971.6 -- 45
2020-10-30 17:00:00 25.1 7 Norte 14 Norte 0 971.5 -- 34
2020-10-30 16:00:00 25.3 6 Nordeste 15 Norte 0 971.8 -- 34
2020-10-30 15:00:00 24.9 5 Norte 12 Norte 0 972 -- 38
2020-10-30 14:00:00 23.7 3 Noroeste 8 Norte 0 972.6 -- 43
2020-10-30 13:00:00 21.3 2 Este 8 Sudoeste 0 973.3 -- 50
2020-10-30 12:00:00 18.7 4 Oeste 8 Oeste 0 974.1 -- 59
2020-10-30 11:00:00 16.2 2 Nordeste 8 Oeste 0 974.2 -- 66
2020-10-30 10:00:00 14 3 Oeste 7 Noroeste 0 974.4 -- 77
2020-10-30 09:00:00 12 4 Noroeste 6 Sudoeste 0 974.2 -- 84
2020-10-30 08:00:00 9.8 4 Sudoeste 6 Oeste 0.2 973.7 -- 90
2020-10-30 07:00:00 9.8 4 Sudoeste 7 Oeste 0 973.5 -- 90
2020-10-30 06:00:00 10.3 3 Sudoeste 5 Sudoeste 0 973.3 -- 89
2020-10-30 05:00:00 10.3 4 Sudoeste 5 Oeste 0 973.3 -- 88
2020-10-30 04:00:00 11 4 Sudoeste 6 Sudoeste 0 973.4 -- 89
2020-10-30 03:00:00 11.4 3 Oeste 6 Oeste 0 973.4 -- 88
2020-10-30 02:00:00 11.9 5 Sudoeste 7 Sudoeste 0 973.4 -- 87
2020-10-30 01:00:00 12.2 4 Sudoeste 5 Sudoeste 0 973.5 -- 86
2020-10-30 00:00:00 12.6 3 Sudoeste 5 Oeste 0 973.8 -- 83
2020-10-29 23:00:00 13.6 4 Sudoeste 7 Sudoeste 0 973.8 -- 81
2020-10-29 22:00:00 14.1 5 Sudoeste 7 Sudoeste 0 973.7 -- 81
2020-10-29 21:00:00 14.5 5 Sudoeste 7 Sudoeste 0 973.4 -- 80
2020-10-29 20:00:00 15.2 4 Sudoeste 6 Sudoeste 0 973.3 -- 78
2020-10-29 19:00:00 16.8 5 Sur 6 Sur 0 973 -- 72
2020-10-29 18:00:00 20.2 4 Noroeste 12 Norte 0 972.7 -- 59
2020-10-29 17:00:00 22.3 5 Norte 14 Norte 0 972.5 -- 50
2020-10-29 16:00:00 22.3 6 Norte 14 Norte 0 972.5 -- 51
2020-10-29 15:00:00 21.3 6 Nordeste 16 Nordeste 0 972.6 -- 53
2020-10-29 14:00:00 19.7 10 Nordeste 18 Nordeste 0 973.4 -- 59
2020-10-29 13:00:00 18.5 11 Este 19 Este 0 974.3 -- 63
2020-10-29 12:00:00 17.4 10 Nordeste 17 Nordeste 0 975.1 -- 67
2020-10-29 11:00:00 15.1 10 Este 20 Este 0 975.2 -- 79
2020-10-29 10:00:00 11.9 5 Nordeste 9 Este 0 975.3 -- 94
2020-10-29 09:00:00 9.8 2 Norte 4 Nordeste 0 974.9 -- 93
2020-10-29 08:00:00 9.4 2 Norte 5 Sudoeste 0 974.2 -- 93
2020-10-29 07:00:00 9.6 3 Oeste 5 Sudoeste 0.2 973.5 -- 93
2020-10-29 06:00:00 9.7 3 Norte 5 Norte 0 973.2 -- 93
2020-10-29 05:00:00 10.1 2 Noroeste 4 Norte 0 972.9 -- 92
2020-10-29 04:00:00 10.3 0 Calma 4 Sudeste 0 972.7 -- 92
2020-10-29 03:00:00 10.2 0 Calma 5 Sudoeste 0 973.1 -- 90
2020-10-29 02:00:00 10.7 5 Sudoeste 5 Sudoeste 0 972.9 -- 89
2020-10-29 01:00:00 10.9 0 Calma 6 Sudoeste 0 972.7 -- 87
2020-10-29 00:00:00 11.7 3 Sur 6 Sudeste 0 972.9 -- 87
2020-10-28 23:00:00 12.4 4 Sudeste 8 Sur 0 972.7 -- 84
2020-10-28 22:00:00 13.6 3 Sur 5 Sudeste 0 972.7 -- 82
2020-10-28 21:00:00 15 2 Nordeste 7 Sudeste 0 972.6 -- 79
2020-10-28 20:00:00 15 4 Sudeste 12 Oeste 0 972.4 -- 78
2020-10-28 19:00:00 15.5 8 Oeste 13 Oeste 0 971.6 -- 75
2020-10-28 18:00:00 17.1 6 Oeste 11 Noroeste 0 971 -- 67
2020-10-28 17:00:00 19.8 3 Oeste 9 Noroeste 0 970.5 -- 56
2020-10-28 16:00:00 19.3 5 Noroeste 10 Noroeste 0 970.7 -- 57
2020-10-28 15:00:00 17.9 4 Norte 12 Noroeste 0 971.1 -- 60
2020-10-28 14:00:00 17.5 4 Norte 15 Noroeste 0 971.6 -- 61
2020-10-28 13:00:00 16.3 2 Este 8 Oeste 0 971.9 -- 64
2020-10-28 12:00:00 15.1 6 Oeste 11 Oeste 0 972.2 -- 68
2020-10-28 11:00:00 14.4 4 Noroeste 10 Noroeste 0 972 -- 72
2020-10-28 10:00:00 13.8 2 Oeste 6 Noroeste 0 971.4 -- 74
2020-10-28 09:00:00 13.2 4 Norte 8 Norte 0 971 -- 78
2020-10-28 08:00:00 12.9 5 Sur 8 Sur 0 969.8 -- 75
2020-10-28 07:00:00 12.4 3 Sur 6 Sur 0 969.6 -- 78
2020-10-28 06:00:00 12 0 Calma 4 Nordeste 0 969.3 -- 82
2020-10-28 05:00:00 12 2 Sur 4 Este 0 968.9 -- 80
2020-10-28 04:00:00 11.9 2 Norte 5 Sudoeste 0 969 -- 81
2020-10-28 03:00:00 11.6 2 Oeste 6 Oeste 0 969.1 -- 79
2020-10-28 02:00:00 10.3 2 Sur 4 Sudeste 0 969.2 -- 83
2020-10-28 01:00:00 10.7 0 Calma 7 Sudoeste 0 969.4 -- 81
2020-10-28 00:00:00 10.8 2 Este 9 Oeste 0 969.5 -- 77